Time,TemperatureF,DewpointF,PressureIn,WindDirection,WindDirectionDegrees,WindSpeedMPH,WindSpeedGustMPH,Humidity,HourlyPrecipIn,Conditions,Clouds,dailyrainin,SoftwareType,DateUTC
2013-01-27 00:02:00,6.0,-9.0,-100.00,NNE,22,2.0,5.0,50,-99.99,,,-99.99,,2013-01-27 00:02:00,
2013-01-27 00:11:00,6.0,-9.0,-100.00,NNE,22,2.0,5.0,50,-99.99,,,-99.99,,2013-01-27 00:11:00,
2013-01-27 00:21:00,6.0,-9.0,-100.00,NE,41,2.0,4.0,50,-99.99,,,-99.99,,2013-01-27 00:21:00,
2013-01-27 00:32:00,6.0,-9.0,-100.00,NE,41,2.0,4.0,50,-99.99,,,-99.99,,2013-01-27 00:32:00,
2013-01-27 00:41:00,6.0,-9.0,-100.00,NE,41,2.0,4.0,50,-99.99,,,-99.99,,2013-01-27 00:41:00,
2013-01-27 00:51:00,2.0,-10.0,-100.00,ENE,57,6.0,10.0,55,-99.99,,,-99.99,,2013-01-27 00:51:00,
2013-01-27 01:01:00,0.0,-12.0,-100.00,NE,45,12.0,18.0,57,-99.99,,,-99.99,,2013-01-27 01:01:00,
2013-01-27 01:11:00,0.0,-12.0,-100.00,NE,45,12.0,18.0,57,-99.99,,,-99.99,,2013-01-27 01:11:00,
2013-01-27 01:22:00,-2.0,-13.0,-100.00,NE,46,11.0,18.0,58,-99.99,,,-99.99,,2013-01-27 01:22:00,
2013-01-27 01:32:00,-2.0,-13.0,-100.00,NE,46,11.0,18.0,58,-99.99,,,-99.99,,2013-01-27 01:32:00,
2013-01-27 01:41:00,-2.0,-13.0,-100.00,NE,46,11.0,18.0,58,-99.99,,,-99.99,,2013-01-27 01:41:00,
2013-01-27 01:51:00,-2.0,-13.0,-100.00,NE,35,7.0,13.0,58,-99.99,,,-99.99,,2013-01-27 01:51:00,
2013-01-27 02:01:00,-2.0,-14.0,-100.00,NE,40,7.0,14.0,56,-99.99,,,-99.99,,2013-01-27 02:01:00,
2013-01-27 02:11:00,-2.0,-14.0,-100.00,NE,40,7.0,14.0,56,-99.99,,,-99.99,,2013-01-27 02:11:00,
2013-01-27 02:21:00,-3.0,-14.0,-100.00,NE,40,9.0,15.0,58,-99.99,,,-99.99,,2013-01-27 02:21:00,
2013-01-27 02:31:00,-4.0,-14.0,-100.00,NE,47,8.0,11.0,61,-99.99,,,-99.99,,2013-01-27 02:31:00,
2013-01-27 02:41:00,-4.0,-14.0,-100.00,NE,47,8.0,11.0,61,-99.99,,,-99.99,,2013-01-27 02:41:00,
2013-01-27 02:52:00,-6.0,-15.0,-100.00,NE,52,8.0,12.0,64,-99.99,,,-99.99,,2013-01-27 02:52:00,
2013-01-27 03:01:00,-6.0,-15.0,-100.00,NE,51,8.0,15.0,64,-99.99,,,-99.99,,2013-01-27 03:01:00,
2013-01-27 03:11:00,-6.0,-15.0,-100.00,NE,51,8.0,15.0,64,-99.99,,,-99.99,,2013-01-27 03:11:00,
2013-01-27 03:21:00,-6.0,-15.0,-100.00,NE,52,7.0,12.0,63,-99.99,,,-99.99,,2013-01-27 03:21:00,
2013-01-27 03:31:00,-7.0,-16.0,-100.00,NE,49,5.0,11.0,63,-99.99,,,-99.99,,2013-01-27 03:31:00,
2013-01-27 03:41:00,-7.0,-16.0,-100.00,NE,49,5.0,11.0,63,-99.99,,,-99.99,,2013-01-27 03:41:00,
2013-01-27 03:51:00,-7.0,-16.0,-100.00,NE,49,5.0,11.0,63,-99.99,,,-99.99,,2013-01-27 03:51:00,
2013-01-27 04:01:00,-7.0,-16.0,-100.00,NE,49,5.0,11.0,63,-99.99,,,-99.99,,2013-01-27 04:01:00,
2013-01-27 04:21:00,-8.0,-17.0,-100.00,NE,41,5.0,10.0,65,-99.99,,,-99.99,,2013-01-27 04:21:00,
2013-01-27 04:31:00,-8.0,-17.0,-100.00,NE,45,6.0,8.0,65,-99.99,,,-99.99,,2013-01-27 04:31:00,
2013-01-27 04:41:00,-8.0,-17.0,-100.00,NE,45,6.0,8.0,65,-99.99,,,-99.99,,2013-01-27 04:41:00,
2013-01-27 04:51:00,-8.0,-17.0,-100.00,NE,48,7.0,10.0,65,-99.99,,,-99.99,,2013-01-27 04:51:00,
2013-01-27 05:03:00,-8.0,-17.0,-100.00,NE,48,8.0,12.0,63,-99.99,,,-99.99,,2013-01-27 05:03:00,
2013-01-27 05:12:00,-8.0,-17.0,-100.00,NE,48,8.0,12.0,63,-99.99,,,-99.99,,2013-01-27 05:12:00,
2013-01-27 05:22:00,-7.0,-17.0,-100.00,NE,49,8.0,15.0,62,-99.99,,,-99.99,,2013-01-27 05:22:00,
2013-01-27 05:31:00,-6.0,-16.0,-100.00,NE,54,7.0,13.0,60,-99.99,,,-99.99,,2013-01-27 05:31:00,
2013-01-27 05:41:00,-6.0,-16.0,-100.00,NE,54,7.0,13.0,60,-99.99,,,-99.99,,2013-01-27 05:41:00,
2013-01-27 05:51:00,-5.0,-17.0,-100.00,NNE,29,1.0,2.0,55,-99.99,,,-99.99,,2013-01-27 05:51:00,
2013-01-27 05:52:00,-6.0,-17.0,-100.00,ENE,61,6.0,10.0,57,-99.99,,,-99.99,,2013-01-27 05:52:00,
2013-01-27 06:01:00,-5.0,-17.0,-100.00,East,90,0.0,6.0,55,-99.99,,,-99.99,,2013-01-27 06:01:00,
2013-01-27 06:11:00,-5.0,-17.0,-100.00,East,90,0.0,6.0,55,-99.99,,,-99.99,,2013-01-27 06:11:00,
2013-01-27 06:21:00,-5.0,-17.0,-100.00,NNE,29,1.0,2.0,55,-99.99,,,-99.99,,2013-01-27 06:21:00,
2013-01-27 06:31:00,-5.0,-17.0,-100.00,NNE,29,1.0,2.0,55,-99.99,,,-99.99,,2013-01-27 06:31:00,
2013-01-27 06:41:00,-5.0,-17.0,-100.00,NNE,29,1.0,2.0,55,-99.99,,,-99.99,,2013-01-27 06:41:00,
2013-01-27 07:01:00,-7.0,-17.0,-100.00,NE,36,0.0,2.0,60,-99.99,,,-99.99,,2013-01-27 07:01:00,
2013-01-27 07:13:00,-7.0,-17.0,-100.00,NE,36,0.0,2.0,60,-99.99,,,-99.99,,2013-01-27 07:13:00,
2013-01-27 07:21:00,-7.0,-18.0,-100.00,ESE,118,0.0,0.0,59,-99.99,,,-99.99,,2013-01-27 07:21:00,
2013-01-27 07:31:00,-7.0,-18.0,-100.00,ESE,118,0.0,0.0,59,-99.99,,,-99.99,,2013-01-27 07:31:00,
2013-01-27 07:41:00,-7.0,-18.0,-100.00,ESE,118,0.0,0.0,59,-99.99,,,-99.99,,2013-01-27 07:41:00,
2013-01-27 07:51:00,-7.0,-18.0,-100.00,NE,50,1.0,3.0,59,-99.99,,,-99.99,,2013-01-27 07:51:00,
2013-01-27 08:01:00,-7.0,-17.0,-100.00,NNE,33,1.0,4.0,61,-99.99,,,-99.99,,2013-01-27 08:01:00,
2013-01-27 08:11:00,-7.0,-17.0,-100.00,NNE,33,1.0,4.0,61,-99.99,,,-99.99,,2013-01-27 08:11:00,
2013-01-27 08:21:00,-7.0,-18.0,-100.00,South,186,0.0,2.0,58,-99.99,,,-99.99,,2013-01-27 08:21:00,
2013-01-27 08:31:00,-5.0,-17.0,-100.00,East,90,0.0,2.0,55,-99.99,,,-99.99,,2013-01-27 08:31:00,
2013-01-27 08:41:00,-5.0,-17.0,-100.00,East,90,0.0,2.0,55,-99.99,,,-99.99,,2013-01-27 08:41:00,
2013-01-27 08:52:00,-5.0,-17.0,-100.00,SW,228,0.0,1.0,54,-99.99,,,-99.99,,2013-01-27 08:52:00,
2013-01-27 09:02:00,-6.0,-18.0,-100.00,South,182,1.0,3.0,54,-99.99,,,-99.99,,2013-01-27 09:02:00,
2013-01-27 09:11:00,-6.0,-18.0,-100.00,South,182,1.0,3.0,54,-99.99,,,-99.99,,2013-01-27 09:11:00,
2013-01-27 09:21:00,-6.0,-18.0,-100.00,West,267,0.0,2.0,54,-99.99,,,-99.99,,2013-01-27 09:21:00,
2013-01-27 09:32:00,-6.0,-18.0,-100.00,West,267,0.0,2.0,54,-99.99,,,-99.99,,2013-01-27 09:32:00,
2013-01-27 09:41:00,-6.0,-18.0,-100.00,West,267,0.0,2.0,54,-99.99,,,-99.99,,2013-01-27 09:41:00,
2013-01-27 09:51:00,-7.0,-18.0,-100.00,NNW,331,0.0,2.0,58,-99.99,,,-99.99,,2013-01-27 09:51:00,
2013-01-27 10:01:00,-7.0,-18.0,-100.00,NNW,331,0.0,2.0,58,-99.99,,,-99.99,,2013-01-27 10:01:00,
2013-01-27 10:11:00,-7.0,-18.0,-100.00,NNW,331,0.0,2.0,58,-99.99,,,-99.99,,2013-01-27 10:11:00,
2013-01-27 10:21:00,-6.0,-18.0,-100.00,SSW,205,1.0,3.0,55,-99.99,,,-99.99,,2013-01-27 10:21:00,
2013-01-27 10:31:00,-6.0,-18.0,-100.00,South,182,0.0,1.0,55,-99.99,,,-99.99,,2013-01-27 10:31:00,
2013-01-27 10:41:00,-6.0,-18.0,-100.00,South,182,0.0,1.0,55,-99.99,,,-99.99,,2013-01-27 10:41:00,
2013-01-27 10:51:00,-6.0,-18.0,-100.00,SSW,210,0.0,1.0,56,-99.99,,,-99.99,,2013-01-27 10:51:00,
2013-01-27 11:01:00,-6.0,-18.0,-100.00,South,185,2.0,4.0,55,-99.99,,,-99.99,,2013-01-27 11:01:00,
2013-01-27 11:11:00,-6.0,-18.0,-100.00,South,185,2.0,4.0,55,-99.99,,,-99.99,,2013-01-27 11:11:00,
2013-01-27 11:21:00,-7.0,-18.0,-100.00,SSE,165,2.0,3.0,57,-99.99,,,-99.99,,2013-01-27 11:21:00,
2013-01-27 11:32:00,-7.0,-18.0,-100.00,South,180,1.0,2.0,59,-99.99,,,-99.99,,2013-01-27 11:32:00,
2013-01-27 11:42:00,-7.0,-18.0,-100.00,South,180,1.0,2.0,59,-99.99,,,-99.99,,2013-01-27 11:42:00,
2013-01-27 11:52:00,-7.0,-17.0,-100.00,SSW,209,1.0,3.0,61,-99.99,,,-99.99,,2013-01-27 11:52:00,
2013-01-27 12:02:00,-7.0,-17.0,-100.00,South,181,2.0,3.0,62,-99.99,,,-99.99,,2013-01-27 12:02:00,
2013-01-27 12:11:00,-7.0,-17.0,-100.00,South,181,2.0,3.0,62,-99.99,,,-99.99,,2013-01-27 12:11:00,
2013-01-27 12:21:00,-7.0,-17.0,-100.00,WSW,251,1.0,4.0,60,-99.99,,,-99.99,,2013-01-27 12:21:00,
2013-01-27 12:32:00,-7.0,-15.0,-100.00,South,181,2.0,4.0,68,-99.99,,,-99.99,,2013-01-27 12:32:00,
2013-01-27 12:42:00,-7.0,-15.0,-100.00,South,181,2.0,4.0,68,-99.99,,,-99.99,,2013-01-27 12:42:00,
2013-01-27 12:52:00,-8.0,-16.0,-100.00,South,176,2.0,4.0,68,-99.99,,,-99.99,,2013-01-27 12:52:00,
2013-01-27 13:02:00,-7.0,-17.0,-100.00,SW,223,2.0,4.0,61,-99.99,,,-99.99,,2013-01-27 13:02:00,
2013-01-27 13:11:00,-7.0,-17.0,-100.00,SW,223,2.0,4.0,61,-99.99,,,-99.99,,2013-01-27 13:11:00,
2013-01-27 13:22:00,-9.0,-16.0,-100.00,SW,234,1.0,4.0,70,-99.99,,,-99.99,,2013-01-27 13:22:00,
2013-01-27 13:32:00,-9.0,-16.0,-100.00,SSE,168,2.0,3.0,69,-99.99,,,-99.99,,2013-01-27 13:32:00,
2013-01-27 13:42:00,-9.0,-16.0,-100.00,SSE,168,2.0,3.0,69,-99.99,,,-99.99,,2013-01-27 13:42:00,
2013-01-27 13:52:00,-8.0,-16.0,-100.00,WSW,257,0.0,2.0,67,-99.99,,,-99.99,,2013-01-27 13:52:00,
2013-01-27 14:01:00,-8.0,-18.0,-100.00,NNE,21,3.0,5.0,61,-99.99,,,-99.99,,2013-01-27 14:01:00,
2013-01-27 14:11:00,-8.0,-18.0,-100.00,NNE,21,3.0,5.0,61,-99.99,,,-99.99,,2013-01-27 14:11:00,
2013-01-27 14:21:00,-10.0,-19.0,-100.00,NE,38,2.0,5.0,63,-99.99,,,-99.99,,2013-01-27 14:21:00,
2013-01-27 14:32:00,-10.0,-19.0,-100.00,NE,38,2.0,5.0,63,-99.99,,,-99.99,,2013-01-27 14:32:00,
2013-01-27 14:42:00,-10.0,-19.0,-100.00,NE,38,2.0,5.0,63,-99.99,,,-99.99,,2013-01-27 14:42:00,
2013-01-27 14:52:00,-10.0,-18.0,-100.00,NE,49,4.0,6.0,67,-99.99,,,-99.99,,2013-01-27 14:52:00,
2013-01-27 15:01:00,-11.0,-18.0,-100.00,NNE,31,6.0,9.0,70,-99.99,,,-99.99,,2013-01-27 15:01:00,
2013-01-27 15:11:00,-11.0,-18.0,-100.00,NNE,31,6.0,9.0,70,-99.99,,,-99.99,,2013-01-27 15:11:00,
2013-01-27 15:21:00,-11.0,-17.0,-100.00,NE,34,4.0,7.0,73,-99.99,,,-99.99,,2013-01-27 15:21:00,
2013-01-27 15:32:00,-11.0,-17.0,-100.00,NE,49,5.0,8.0,73,-99.99,,,-99.99,,2013-01-27 15:32:00,
2013-01-27 15:42:00,-11.0,-17.0,-100.00,NE,49,5.0,8.0,73,-99.99,,,-99.99,,2013-01-27 15:42:00,
2013-01-27 15:52:00,-11.0,-18.0,-100.00,NE,42,6.0,9.0,71,-99.99,,,-99.99,,2013-01-27 15:52:00,
2013-01-27 16:02:00,-11.0,-19.0,-100.00,NE,54,7.0,10.0,68,-99.99,,,-99.99,,2013-01-27 16:02:00,
2013-01-27 16:11:00,-11.0,-19.0,-100.00,NE,54,7.0,10.0,68,-99.99,,,-99.99,,2013-01-27 16:11:00,
2013-01-27 16:21:00,-9.0,-18.0,-100.00,NE,52,7.0,10.0,64,-99.99,,,-99.99,,2013-01-27 16:21:00,
2013-01-27 16:32:00,-9.0,-18.0,-100.00,NE,52,7.0,10.0,64,-99.99,,,-99.99,,2013-01-27 16:32:00,
2013-01-27 16:42:00,-9.0,-18.0,-100.00,NE,52,7.0,10.0,64,-99.99,,,-99.99,,2013-01-27 16:42:00,
2013-01-27 16:52:00,-9.0,-18.0,-100.00,NNE,20,2.0,6.0,63,-99.99,,,-99.99,,2013-01-27 16:52:00,
2013-01-27 17:01:00,-11.0,-19.0,-100.00,NE,46,5.0,8.0,66,-99.99,,,-99.99,,2013-01-27 17:01:00,
2013-01-27 17:11:00,-11.0,-19.0,-100.00,NE,46,5.0,8.0,66,-99.99,,,-99.99,,2013-01-27 17:11:00,
2013-01-27 17:21:00,-12.0,-18.0,-100.00,NE,56,4.0,8.0,74,-99.99,,,-99.99,,2013-01-27 17:21:00,
2013-01-27 17:32:00,-11.0,-16.0,-100.00,NNE,24,0.0,3.0,76,-99.99,,,-99.99,,2013-01-27 17:32:00,
2013-01-27 17:42:00,-11.0,-16.0,-100.00,NNE,24,0.0,3.0,76,-99.99,,,-99.99,,2013-01-27 17:42:00,
2013-01-27 17:52:00,-11.0,-16.0,-100.00,NW,314,0.0,1.0,76,-99.99,,,-99.99,,2013-01-27 17:52:00,
2013-01-27 18:02:00,-12.0,-18.0,-100.00,NE,34,2.0,3.0,75,-99.99,,,-99.99,,2013-01-27 18:02:00,
2013-01-27 18:11:00,-12.0,-18.0,-100.00,NE,34,2.0,3.0,75,-99.99,,,-99.99,,2013-01-27 18:11:00,
2013-01-27 18:22:00,-12.0,-17.0,-100.00,East,98,2.0,4.0,76,-99.99,,,-99.99,,2013-01-27 18:22:00,
2013-01-27 18:32:00,-11.0,-16.0,-100.00,ENE,73,2.0,4.0,76,-99.99,,,-99.99,,2013-01-27 18:32:00,
2013-01-27 18:42:00,-11.0,-16.0,-100.00,ENE,73,2.0,4.0,76,-99.99,,,-99.99,,2013-01-27 18:42:00,
2013-01-27 18:51:00,-12.0,-18.0,-100.00,NE,46,4.0,7.0,75,-99.99,,,-99.99,,2013-01-27 18:51:00,
2013-01-27 19:01:00,-13.0,-19.0,-100.00,NNE,31,4.0,9.0,75,-99.99,,,-99.99,,2013-01-27 19:01:00,
2013-01-27 19:11:00,-13.0,-19.0,-100.00,NNE,31,4.0,9.0,75,-99.99,,,-99.99,,2013-01-27 19:11:00,
2013-01-27 19:21:00,-12.0,-18.0,-100.00,NE,49,7.0,14.0,75,-99.99,,,-99.99,,2013-01-27 19:21:00,
2013-01-27 19:32:00,-12.0,-18.0,-100.00,NE,49,7.0,14.0,75,-99.99,,,-99.99,,2013-01-27 19:32:00,
2013-01-27 19:41:00,-12.0,-18.0,-100.00,NE,49,7.0,14.0,75,-99.99,,,-99.99,,2013-01-27 19:41:00,
2013-01-27 19:51:00,-12.0,-18.0,-100.00,NNE,32,3.0,9.0,75,-99.99,,,-99.99,,2013-01-27 19:51:00,
2013-01-27 20:02:00,-13.0,-19.0,-100.00,NE,45,4.0,8.0,75,-99.99,,,-99.99,,2013-01-27 20:02:00,
2013-01-27 20:11:00,-13.0,-19.0,-100.00,NE,45,4.0,8.0,75,-99.99,,,-99.99,,2013-01-27 20:11:00,
2013-01-27 20:21:00,-14.0,-20.0,-100.00,NNE,32,6.0,10.0,74,-99.99,,,-99.99,,2013-01-27 20:21:00,
2013-01-27 20:32:00,-13.0,-19.0,-100.00,NE,46,5.0,9.0,75,-99.99,,,-99.99,,2013-01-27 20:32:00,
2013-01-27 20:41:00,-13.0,-19.0,-100.00,NE,46,5.0,9.0,75,-99.99,,,-99.99,,2013-01-27 20:41:00,
2013-01-27 20:52:00,-11.0,-17.0,-100.00,NE,42,6.0,10.0,75,-99.99,,,-99.99,,2013-01-27 20:52:00,
2013-01-27 21:01:00,-9.0,-15.0,-100.00,NE,43,6.0,10.0,74,-99.99,,,-99.99,,2013-01-27 21:01:00,
2013-01-27 21:12:00,-9.0,-15.0,-100.00,NE,43,6.0,10.0,74,-99.99,,,-99.99,,2013-01-27 21:12:00,
2013-01-27 21:22:00,-8.0,-15.0,-100.00,NE,45,7.0,10.0,69,-99.99,,,-99.99,,2013-01-27 21:22:00,
2013-01-27 21:32:00,-8.0,-15.0,-100.00,NE,45,7.0,10.0,69,-99.99,,,-99.99,,2013-01-27 21:32:00,
2013-01-27 21:42:00,-8.0,-15.0,-100.00,NE,45,7.0,10.0,69,-99.99,,,-99.99,,2013-01-27 21:42:00,
2013-01-27 21:52:00,-6.0,-18.0,-100.00,NE,44,6.0,12.0,56,-99.99,,,-99.99,,2013-01-27 21:52:00,
2013-01-27 22:01:00,-7.0,-19.0,-100.00,NE,40,8.0,14.0,56,-99.99,,,-99.99,,2013-01-27 22:01:00,
2013-01-27 22:11:00,-7.0,-19.0,-100.00,NE,40,8.0,14.0,56,-99.99,,,-99.99,,2013-01-27 22:11:00,
2013-01-27 22:21:00,-7.0,-19.0,-100.00,NE,40,9.0,14.0,56,-99.99,,,-99.99,,2013-01-27 22:21:00,
2013-01-27 22:32:00,-6.0,-18.0,-100.00,NNE,19,5.0,17.0,55,-99.99,,,-99.99,,2013-01-27 22:32:00,
2013-01-27 22:42:00,-6.0,-18.0,-100.00,NNE,19,5.0,17.0,55,-99.99,,,-99.99,,2013-01-27 22:42:00,
2013-01-27 22:51:00,-4.0,-18.0,-100.00,NNE,30,4.0,9.0,51,-99.99,,,-99.99,,2013-01-27 22:51:00,
2013-01-27 23:02:00,-4.0,-18.0,-100.00,NNE,30,4.0,9.0,51,-99.99,,,-99.99,,2013-01-27 23:02:00,
2013-01-27 23:11:00,-4.0,-18.0,-100.00,NNE,30,4.0,9.0,51,-99.99,,,-99.99,,2013-01-27 23:11:00,
2013-01-27 23:21:00,-3.0,-17.0,-100.00,NNE,25,6.0,12.0,49,-99.99,,,-99.99,,2013-01-27 23:21:00,
2013-01-27 23:32:00,-4.0,-18.0,-100.00,NNE,18,7.0,17.0,50,-99.99,,,-99.99,,2013-01-27 23:32:00,
2013-01-27 23:41:00,-4.0,-18.0,-100.00,NNE,18,7.0,17.0,50,-99.99,,,-99.99,,2013-01-27 23:41:00,
2013-01-27 23:52:00,-5.0,-18.0,-100.00,NNE,27,8.0,16.0,52,-99.99,,,-99.99,,2013-01-27 23:52:00,